Time;durP1;ratioP1;P1;durP2;ratioP2;P2;SDS_P1;SDS_P2;PMS_P1;PMS_P2;Temp;Humidity;BMP_temperature;BMP_pressure;BME280_temperature;BME280_humidity;BME280_pressure;Samples;Min_cycle;Max_cycle;Signal;HPM_P1;HPM_P2
2021/03/21 00:02:29;;;;;;;2.51;2.24;;;;;;;19.14;40.04;101210.47;;;;-58
2021/03/21 00:05:29;;;;;;;2.43;2.05;;;;;;;19.12;40.03;101210.11;;;;-48
2021/03/21 00:08:29;;;;;;;2.23;2.03;;;;;;;19.11;40.02;101212.19;;;;-48
2021/03/21 00:11:29;;;;;;;2.27;2.07;;;;;;;19.09;40.00;101213.55;;;;-47
2021/03/21 00:14:31;;;;;;;2.31;2.11;;;;;;;19.08;40.03;101213.44;;;;-48
2021/03/21 00:17:29;;;;;;;2.12;1.92;;;;;;;19.05;40.06;101211.41;;;;-58
2021/03/21 00:20:29;;;;;;;2.21;1.97;;;;;;;19.03;40.05;101203.92;;;;-57
2021/03/21 00:23:29;;;;;;;2.18;1.98;;;;;;;19.00;40.08;101200.69;;;;-58
2021/03/21 00:26:29;;;;;;;2.07;1.91;;;;;;;18.99;40.07;101196.53;;;;-58
2021/03/21 00:29:29;;;;;;;2.39;2.13;;;;;;;18.96;40.05;101192.97;;;;-51
2021/03/21 00:32:29;;;;;;;1.87;1.76;;;;;;;18.95;40.09;101193.94;;;;-51
2021/03/21 00:35:29;;;;;;;3.82;1.99;;;;;;;18.93;40.04;101191.78;;;;-51
2021/03/21 00:38:29;;;;;;;2.28;2.08;;;;;;;18.91;40.09;101187.27;;;;-51
2021/03/21 00:41:30;;;;;;;2.30;2.10;;;;;;;18.90;40.08;101177.24;;;;-51
2021/03/21 00:44:29;;;;;;;2.23;2.03;;;;;;;18.88;40.14;101169.41;;;;-52
2021/03/21 00:47:29;;;;;;;2.34;2.14;;;;;;;18.86;40.13;101166.52;;;;-51
2021/03/21 00:50:29;;;;;;;2.27;2.07;;;;;;;18.84;40.11;101165.86;;;;-51
2021/03/21 00:53:29;;;;;;;2.39;2.12;;;;;;;18.83;40.18;101164.85;;;;-57
2021/03/21 00:56:29;;;;;;;2.43;2.23;;;;;;;18.81;40.19;101166.43;;;;-57
2021/03/21 00:59:29;;;;;;;2.23;2.03;;;;;;;18.80;40.11;101165.70;;;;-57
2021/03/21 01:02:29;;;;;;;2.42;2.22;;;;;;;18.78;40.16;101166.80;;;;-57
2021/03/21 01:05:29;;;;;;;2.22;2.02;;;;;;;18.76;40.14;101153.73;;;;-57
2021/03/21 01:08:29;;;;;;;2.41;2.20;;;;;;;18.74;40.11;101150.16;;;;-57
2021/03/21 01:11:29;;;;;;;2.47;2.27;;;;;;;18.73;40.18;101136.03;;;;-51
2021/03/21 01:14:29;;;;;;;2.31;2.11;;;;;;;18.72;40.21;101131.39;;;;-51
2021/03/21 01:17:29;;;;;;;2.30;2.10;;;;;;;18.69;40.18;101132.05;;;;-58
2021/03/21 01:20:29;;;;;;;2.31;2.10;;;;;;;18.69;40.21;101124.83;;;;-58
2021/03/21 01:23:29;;;;;;;2.31;2.10;;;;;;;18.67;40.23;101120.97;;;;-57
2021/03/21 01:26:29;;;;;;;2.25;2.00;;;;;;;18.64;40.20;101116.13;;;;-51
2021/03/21 01:29:29;;;;;;;2.37;2.17;;;;;;;18.63;40.25;101119.42;;;;-48
2021/03/21 01:32:29;;;;;;;2.30;2.10;;;;;;;18.62;40.27;101114.14;;;;-48
2021/03/21 01:35:29;;;;;;;2.29;2.09;;;;;;;18.61;40.27;101109.88;;;;-51
2021/03/21 01:38:29;;;;;;;2.45;2.10;;;;;;;18.58;40.19;101103.99;;;;-50
2021/03/21 01:41:29;;;;;;;2.29;2.09;;;;;;;18.57;40.23;101100.09;;;;-51
2021/03/21 01:44:29;;;;;;;2.30;2.10;;;;;;;18.56;40.26;101092.75;;;;-51
2021/03/21 01:47:29;;;;;;;2.40;2.20;;;;;;;18.54;40.17;101089.62;;;;-51
2021/03/21 01:50:29;;;;;;;2.20;2.00;;;;;;;18.54;40.24;101082.48;;;;-51
2021/03/21 01:53:29;;;;;;;2.28;2.08;;;;;;;18.52;40.28;101070.59;;;;-50
2021/03/21 01:56:29;;;;;;;2.21;2.03;;;;;;;18.51;40.30;101076.83;;;;-48
2021/03/21 01:59:29;;;;;;;2.28;2.08;;;;;;;18.49;40.31;101076.47;;;;-48
2021/03/21 02:02:29;;;;;;;2.65;2.10;;;;;;;18.48;40.28;101078.86;;;;-48
2021/03/21 02:05:29;;;;;;;2.09;1.89;;;;;;;18.46;40.26;101081.26;;;;-48
2021/03/21 02:08:29;;;;;;;2.30;2.10;;;;;;;18.46;40.34;101078.02;;;;-48
2021/03/21 02:11:29;;;;;;;2.39;2.18;;;;;;;18.44;40.29;101074.16;;;;-48
2021/03/21 02:14:29;;;;;;;2.30;2.10;;;;;;;18.43;40.29;101074.92;;;;-48
2021/03/21 02:17:29;;;;;;;2.63;2.12;;;;;;;18.42;40.32;101073.63;;;;-48
2021/03/21 02:20:29;;;;;;;2.52;2.11;;;;;;;18.41;40.37;101071.92;;;;-57
2021/03/21 02:23:29;;;;;;;2.31;2.11;;;;;;;18.39;40.33;101067.17;;;;-57
2021/03/21 02:26:29;;;;;;;2.30;2.10;;;;;;;18.37;40.26;101059.91;;;;-48
2021/03/21 02:29:29;;;;;;;2.17;1.97;;;;;;;18.36;40.36;101059.05;;;;-57
2021/03/21 02:32:29;;;;;;;2.46;2.26;;;;;;;18.35;40.32;101057.59;;;;-57
2021/03/21 02:35:29;;;;;;;2.21;2.01;;;;;;;18.35;40.34;101060.83;;;;-57
2021/03/21 02:38:29;;;;;;;2.33;2.13;;;;;;;18.35;40.36;101062.38;;;;-57
2021/03/21 02:41:29;;;;;;;2.18;1.98;;;;;;;18.32;40.29;101055.89;;;;-51
2021/03/21 02:44:29;;;;;;;2.12;1.92;;;;;;;18.31;40.33;101052.47;;;;-51
2021/03/21 02:47:29;;;;;;;2.15;1.95;;;;;;;18.30;40.31;101049.59;;;;-51
2021/03/21 02:50:29;;;;;;;2.15;1.95;;;;;;;18.29;40.35;101050.00;;;;-51
2021/03/21 02:53:29;;;;;;;2.11;1.91;;;;;;;18.27;40.31;101043.06;;;;-51
2021/03/21 02:56:29;;;;;;;2.18;1.98;;;;;;;18.27;40.33;101036.81;;;;-48
2021/03/21 02:59:29;;;;;;;2.07;1.90;;;;;;;18.25;40.38;101030.61;;;;-51
2021/03/21 03:02:29;;;;;;;2.20;2.00;;;;;;;18.24;40.35;101034.90;;;;-51
2021/03/21 03:05:29;;;;;;;2.33;2.13;;;;;;;18.23;40.34;101035.43;;;;-51
2021/03/21 03:08:29;;;;;;;2.19;1.98;;;;;;;18.23;40.35;101035.75;;;;-51
2021/03/21 03:11:29;;;;;;;2.19;1.99;;;;;;;18.22;40.35;101035.39;;;;-51
2021/03/21 03:14:29;;;;;;;2.32;2.12;;;;;;;18.21;40.36;101037.91;;;;-57
2021/03/21 03:17:29;;;;;;;2.23;2.03;;;;;;;18.20;40.29;101029.75;;;;-57
2021/03/21 03:20:29;;;;;;;2.01;1.89;;;;;;;18.18;40.37;101022.84;;;;-57
2021/03/21 03:23:29;;;;;;;2.19;1.99;;;;;;;18.18;40.42;101021.76;;;;-49
2021/03/21 03:26:29;;;;;;;2.11;1.91;;;;;;;18.16;40.46;101018.75;;;;-48
2021/03/21 03:29:29;;;;;;;2.20;2.00;;;;;;;18.15;40.40;101019.69;;;;-48
2021/03/21 03:32:29;;;;;;;2.34;2.07;;;;;;;18.15;40.40;101020.25;;;;-48
2021/03/21 03:35:29;;;;;;;2.19;1.99;;;;;;;18.13;40.48;101013.16;;;;-51
2021/03/21 03:38:29;;;;;;;2.09;1.89;;;;;;;18.12;40.45;101014.20;;;;-51
2021/03/21 03:41:29;;;;;;;2.41;2.21;;;;;;;18.12;40.40;101002.44;;;;-51
2021/03/21 03:44:29;;;;;;;1.95;1.79;;;;;;;18.12;40.45;101000.17;;;;-51
2021/03/21 03:47:29;;;;;;;2.21;2.01;;;;;;;18.10;40.44;100995.75;;;;-51
2021/03/21 03:50:29;;;;;;;2.26;1.94;;;;;;;18.09;40.43;100992.95;;;;-51
2021/03/21 03:53:29;;;;;;;1.90;1.80;;;;;;;18.08;40.46;100995.05;;;;-51
2021/03/21 03:56:29;;;;;;;2.16;1.96;;;;;;;18.07;40.39;100990.72;;;;-51
2021/03/21 03:59:29;;;;;;;2.31;1.99;;;;;;;18.06;40.49;100981.14;;;;-51
2021/03/21 04:02:29;;;;;;;2.03;1.83;;;;;;;18.06;40.42;100978.95;;;;-51
2021/03/21 04:05:29;;;;;;;1.97;1.81;;;;;;;18.04;40.53;100971.12;;;;-51
2021/03/21 04:08:29;;;;;;;2.09;1.92;;;;;;;18.04;40.46;100964.31;;;;-48
2021/03/21 04:11:29;;;;;;;2.14;1.94;;;;;;;18.02;40.46;100963.38;;;;-48
2021/03/21 04:14:29;;;;;;;2.17;1.97;;;;;;;18.01;40.46;100950.85;;;;-48
2021/03/21 04:17:29;;;;;;;2.00;1.80;;;;;;;18.01;40.47;100943.15;;;;-48
2021/03/21 04:20:29;;;;;;;1.79;1.69;;;;;;;17.99;40.49;100945.49;;;;-48
2021/03/21 04:23:29;;;;;;;2.03;1.83;;;;;;;17.98;40.47;100947.08;;;;-48
2021/03/21 04:26:29;;;;;;;1.97;1.77;;;;;;;17.97;40.42;100953.72;;;;-57
2021/03/21 04:29:29;;;;;;;2.00;1.89;;;;;;;17.98;40.48;100967.84;;;;-57
2021/03/21 04:32:29;;;;;;;1.76;1.66;;;;;;;17.96;40.49;100972.50;;;;-57
2021/03/21 04:35:29;;;;;;;2.13;1.95;;;;;;;17.94;40.54;100967.52;;;;-57
2021/03/21 04:38:29;;;;;;;2.03;1.83;;;;;;;17.94;40.51;100973.52;;;;-57
2021/03/21 04:41:29;;;;;;;1.97;1.87;;;;;;;17.93;40.39;100964.91;;;;-56
2021/03/21 04:44:29;;;;;;;1.90;1.80;;;;;;;17.93;40.53;100963.29;;;;-56
2021/03/21 04:47:29;;;;;;;2.00;1.72;;;;;;;17.92;40.50;100961.63;;;;-57
2021/03/21 04:50:29;;;;;;;1.98;1.87;;;;;;;17.91;40.44;100960.33;;;;-57
2021/03/21 04:53:29;;;;;;;2.17;1.97;;;;;;;17.90;40.44;100959.80;;;;-51
2021/03/21 04:56:29;;;;;;;2.12;1.90;;;;;;;17.89;40.61;100964.66;;;;-50
2021/03/21 04:59:29;;;;;;;1.93;1.83;;;;;;;17.90;40.56;100969.13;;;;-50
2021/03/21 05:02:29;;;;;;;2.13;1.79;;;;;;;17.88;40.50;100966.90;;;;-51
2021/03/21 05:05:29;;;;;;;1.85;1.75;;;;;;;17.86;40.56;100972.13;;;;-50
2021/03/21 05:08:29;;;;;;;2.12;1.92;;;;;;;17.86;40.55;100976.02;;;;-51
2021/03/21 05:11:29;;;;;;;1.75;1.65;;;;;;;17.86;40.55;100973.09;;;;-51
2021/03/21 05:14:29;;;;;;;1.83;1.73;;;;;;;17.85;40.50;100970.41;;;;-48
2021/03/21 05:17:29;;;;;;;1.80;1.70;;;;;;;17.84;40.52;100956.43;;;;-48
2021/03/21 05:20:29;;;;;;;2.00;1.80;;;;;;;17.84;40.55;100954.97;;;;-48
2021/03/21 05:23:29;;;;;;;1.90;1.79;;;;;;;17.82;40.56;100953.52;;;;-48
2021/03/21 05:26:29;;;;;;;1.82;1.71;;;;;;;17.81;40.53;100950.35;;;;-48
2021/03/21 05:29:29;;;;;;;2.00;1.80;;;;;;;17.80;40.63;100947.07;;;;-48
2021/03/21 05:32:29;;;;;;;1.75;1.65;;;;;;;17.81;40.55;100951.16;;;;-48
2021/03/21 05:35:29;;;;;;;1.93;1.83;;;;;;;17.80;40.52;100951.69;;;;-48
2021/03/21 05:38:29;;;;;;;1.94;1.76;;;;;;;17.78;40.55;100948.41;;;;-51
2021/03/21 05:41:29;;;;;;;1.96;1.76;;;;;;;17.77;40.52;100949.95;;;;-51
2021/03/21 05:44:29;;;;;;;1.83;1.73;;;;;;;17.77;40.54;100950.19;;;;-51
2021/03/21 05:48:29;;;;;;;1.94;1.81;;;;;;;17.76;40.56;100953.99;;;;-51
2021/03/21 05:51:29;;;;;;;1.91;1.81;;;;;;;17.75;40.46;100950.38;;;;-56
2021/03/21 05:54:29;;;;;;;1.93;1.72;;;;;;;17.76;40.47;100945.28;;;;-56
2021/03/21 05:57:29;;;;;;;1.82;1.71;;;;;;;17.75;40.56;100947.79;;;;-56
2021/03/21 06:00:29;;;;;;;1.87;1.70;;;;;;;17.74;40.54;100956.42;;;;-57
2021/03/21 06:04:29;;;;;;;2.04;1.80;;;;;;;17.73;40.55;100953.34;;;;-57
2021/03/21 06:08:30;;;;;;;2.01;1.81;;;;;;;17.73;40.50;100948.14;;;;-56
2021/03/21 06:11:29;;;;;;;1.97;1.86;;;;;;;17.71;40.53;100946.24;;;;-57
2021/03/21 06:14:29;;;;;;;2.13;1.93;;;;;;;17.72;40.58;100942.92;;;;-57
2021/03/21 06:17:29;;;;;;;2.19;1.82;;;;;;;17.72;40.57;100940.49;;;;-56
2021/03/21 06:20:29;;;;;;;1.89;1.75;;;;;;;17.72;40.64;100939.31;;;;-56
2021/03/21 06:25:29;;;;;;;1.94;1.72;;;;;;;17.74;40.66;100941.30;;;;-57
2021/03/21 06:28:31;;;;;;;1.95;1.79;;;;;;;17.76;40.75;100942.37;;;;-51
2021/03/21 06:33:29;;;;;;;1.80;1.70;;;;;;;17.80;40.87;100938.55;;;;-51
2021/03/21 06:36:29;;;;;;;1.94;1.75;;;;;;;17.82;40.97;100933.81;;;;-51
2021/03/21 06:39:29;;;;;;;1.89;1.73;;;;;;;17.85;40.86;100930.94;;;;-51
2021/03/21 06:43:29;;;;;;;1.95;1.72;;;;;;;17.91;40.88;100932.32;;;;-51
2021/03/21 06:46:29;;;;;;;2.03;1.83;;;;;;;17.95;40.80;100938.81;;;;-51
2021/03/21 06:49:29;;;;;;;2.29;2.02;;;;;;;17.98;40.82;100923.97;;;;-51
2021/03/21 06:53:29;;;;;;;1.89;1.67;;;;;;;18.06;40.85;100924.13;;;;-51
2021/03/21 06:56:29;;;;;;;1.89;1.63;;;;;;;18.09;40.86;100920.84;;;;-51
2021/03/21 06:59:29;;;;;;;1.72;1.62;;;;;;;18.13;40.86;100923.44;;;;-51
2021/03/21 07:02:29;;;;;;;1.81;1.71;;;;;;;18.15;40.86;100926.23;;;;-51
2021/03/21 07:06:29;;;;;;;1.71;1.61;;;;;;;18.19;40.84;100913.58;;;;-51
2021/03/21 07:15:55;;;;;;;1.91;1.80;;;;;;;18.26;40.83;100900.55;;;;-51
2021/03/21 07:18:55;;;;;;;1.89;1.75;;;;;;;18.26;40.81;100909.35;;;;-51
2021/03/21 07:23:56;;;;;;;2.02;1.82;;;;;;;18.28;40.82;100908.47;;;;-51
2021/03/21 07:33:21;;;;;;;1.90;1.79;;;;;;;18.30;40.81;100890.20;;;;-57
2021/03/21 07:36:21;;;;;;;1.81;1.69;;;;;;;18.30;40.79;100876.12;;;;-57
2021/03/21 07:39:21;;;;;;;1.79;1.69;;;;;;;18.29;40.79;100873.12;;;;-51
2021/03/21 07:42:21;;;;;;;1.92;1.81;;;;;;;18.29;40.83;100877.51;;;;-51
2021/03/21 07:45:21;;;;;;;1.86;1.74;;;;;;;18.30;40.75;100885.86;;;;-48
2021/03/21 07:48:21;;;;;;;1.82;1.69;;;;;;;18.30;40.75;100880.52;;;;-51
2021/03/21 07:51:21;;;;;;;1.78;1.68;;;;;;;18.28;40.84;100872.64;;;;-51
2021/03/21 07:54:21;;;;;;;1.96;1.60;;;;;;;18.29;40.76;100879.45;;;;-51
2021/03/21 07:57:21;;;;;;;1.72;1.62;;;;;;;18.28;40.87;100873.12;;;;-50
2021/03/21 08:00:21;;;;;;;2.28;1.87;;;;;;;18.28;40.72;100870.53;;;;-56
2021/03/21 08:03:21;;;;;;;2.05;1.84;;;;;;;18.27;40.79;100868.70;;;;-51
2021/03/21 08:06:21;;;;;;;1.96;1.79;;;;;;;18.27;40.74;100873.66;;;;-51
2021/03/21 08:09:21;;;;;;;2.13;1.81;;;;;;;18.27;40.85;100873.41;;;;-51
2021/03/21 08:12:21;;;;;;;1.80;1.70;;;;;;;18.26;40.81;100871.95;;;;-50
2021/03/21 08:15:21;;;;;;;2.00;1.81;;;;;;;18.26;40.76;100871.14;;;;-56
2021/03/21 08:18:22;;;;;;;1.66;1.56;;;;;;;18.24;40.69;100872.48;;;;-57
2021/03/21 08:21:21;;;;;;;1.79;1.69;;;;;;;18.25;40.69;100882.62;;;;-48
2021/03/21 08:24:22;;;;;;;1.89;1.69;;;;;;;18.23;40.77;100878.29;;;;-48
2021/03/21 08:27:21;;;;;;;1.86;1.74;;;;;;;18.24;40.67;100875.94;;;;-51
2021/03/21 08:30:21;;;;;;;1.85;1.75;;;;;;;18.22;40.68;100878.61;;;;-48
2021/03/21 08:33:21;;;;;;;1.90;1.70;;;;;;;18.23;40.72;100876.59;;;;-57
2021/03/21 08:36:21;;;;;;;1.73;1.63;;;;;;;18.22;40.74;100880.04;;;;-56
2021/03/21 08:39:22;;;;;;;2.00;1.81;;;;;;;18.21;40.79;100873.88;;;;-57
2021/03/21 08:42:21;;;;;;;1.76;1.66;;;;;;;18.20;40.63;100876.79;;;;-50
2021/03/21 08:45:21;;;;;;;2.01;1.81;;;;;;;18.20;40.65;100881.57;;;;-51
2021/03/21 08:48:22;;;;;;;1.97;1.84;;;;;;;18.20;40.73;100882.95;;;;-51
2021/03/21 08:51:21;;;;;;;2.01;1.80;;;;;;;18.20;40.76;100888.52;;;;-48
2021/03/21 08:54:21;;;;;;;2.34;1.77;;;;;;;18.18;40.68;100890.95;;;;-48
2021/03/21 08:57:21;;;;;;;2.31;1.91;;;;;;;18.19;40.86;100893.38;;;;-58
2021/03/21 09:00:21;;;;;;;2.48;2.00;;;;;;;18.20;41.01;100888.36;;;;-56
2021/03/21 09:03:21;;;;;;;2.42;1.97;;;;;;;18.21;41.12;100884.02;;;;-50
2021/03/21 09:06:21;;;;;;;2.87;2.39;;;;;;;18.22;40.80;100881.53;;;;-51
2021/03/21 09:09:21;;;;;;;3.40;2.52;;;;;;;18.26;40.36;100883.12;;;;-51
2021/03/21 09:12:21;;;;;;;3.61;2.67;;;;;;;18.28;40.09;100883.67;;;;-61
2021/03/21 09:15:21;;;;;;;2.95;2.52;;;;;;;18.34;40.03;100884.16;;;;-51
2021/03/21 09:18:21;;;;;;;3.63;2.46;;;;;;;18.42;40.82;100877.08;;;;-51
2021/03/21 09:21:21;;;;;;;2.38;2.18;;;;;;;18.50;40.86;100873.56;;;;-50
2021/03/21 09:24:21;;;;;;;2.80;2.13;;;;;;;18.56;41.17;100872.70;;;;-51
2021/03/21 09:27:21;;;;;;;2.99;2.17;;;;;;;18.60;40.78;100870.89;;;;-52
2021/03/21 09:30:21;;;;;;;3.25;2.11;;;;;;;18.64;40.96;100877.22;;;;-56
2021/03/21 09:33:21;;;;;;;2.37;2.03;;;;;;;18.69;41.09;100883.54;;;;-55
2021/03/21 09:36:21;;;;;;;2.72;2.12;;;;;;;18.74;41.20;100881.69;;;;-51
2021/03/21 09:39:21;;;;;;;2.29;2.05;;;;;;;18.77;41.16;100890.48;;;;-52
2021/03/21 09:42:21;;;;;;;2.35;2.13;;;;;;;18.83;41.21;100898.74;;;;-49
2021/03/21 09:45:21;;;;;;;2.87;2.10;;;;;;;18.89;41.26;100889.42;;;;-52
2021/03/21 09:48:21;;;;;;;2.79;2.07;;;;;;;18.94;41.42;100880.95;;;;-54
2021/03/21 09:51:21;;;;;;;2.47;2.16;;;;;;;18.97;41.37;100879.72;;;;-60
2021/03/21 09:54:21;;;;;;;2.27;2.07;;;;;;;19.01;41.53;100875.07;;;;-54
2021/03/21 09:57:21;;;;;;;2.44;2.04;;;;;;;19.06;41.64;100870.66;;;;-57
2021/03/21 10:00:21;;;;;;;2.37;2.00;;;;;;;19.10;41.62;100865.52;;;;-52
2021/03/21 10:03:21;;;;;;;2.25;2.05;;;;;;;19.12;41.56;100870.75;;;;-54
2021/03/21 10:06:21;;;;;;;2.29;2.01;;;;;;;19.16;41.82;100867.72;;;;-60
2021/03/21 10:09:21;;;;;;;2.79;2.18;;;;;;;19.15;41.25;100862.69;;;;-51
2021/03/21 10:12:21;;;;;;;5.21;2.18;;;;;;;19.19;41.50;100863.61;;;;-49
2021/03/21 10:15:24;;;;;;;3.85;2.19;;;;;;;19.22;41.39;100866.27;;;;-52
2021/03/21 10:18:21;;;;;;;4.34;1.88;;;;;;;19.25;41.57;100870.03;;;;-59
2021/03/21 10:21:21;;;;;;;2.60;2.05;;;;;;;19.31;41.65;100869.47;;;;-57
2021/03/21 10:24:21;;;;;;;2.72;1.99;;;;;;;19.33;41.52;100867.70;;;;-56
2021/03/21 10:27:22;;;;;;;2.27;1.97;;;;;;;19.35;41.49;100865.70;;;;-52
2021/03/21 10:30:21;;;;;;;2.07;1.87;;;;;;;19.40;41.78;100864.73;;;;-54
2021/03/21 10:33:21;;;;;;;2.20;1.85;;;;;;;19.42;41.63;100855.00;;;;-59
2021/03/21 10:36:21;;;;;;;3.43;2.02;;;;;;;19.45;41.34;100852.59;;;;-58
2021/03/21 10:39:21;;;;;;;2.66;1.87;;;;;;;19.47;41.56;100846.92;;;;-57
2021/03/21 10:42:21;;;;;;;4.37;1.86;;;;;;;19.50;41.45;100844.59;;;;-55
2021/03/21 10:45:21;;;;;;;2.85;1.91;;;;;;;19.56;41.65;100838.49;;;;-58
2021/03/21 10:48:21;;;;;;;2.18;1.89;;;;;;;19.58;41.60;100837.37;;;;-51
2021/03/21 10:51:21;;;;;;;2.43;1.85;;;;;;;19.63;41.60;100828.84;;;;-50
2021/03/21 10:54:21;;;;;;;2.17;1.97;;;;;;;19.67;41.55;100825.47;;;;-56
2021/03/21 10:57:21;;;;;;;2.77;1.98;;;;;;;19.69;41.56;100825.46;;;;-53
2021/03/21 11:00:21;;;;;;;2.73;1.80;;;;;;;19.74;41.50;100817.27;;;;-55
2021/03/21 11:03:21;;;;;;;2.63;2.00;;;;;;;19.77;41.54;100808.43;;;;-53
2021/03/21 11:06:21;;;;;;;2.35;1.93;;;;;;;19.77;41.44;100810.37;;;;-58
2021/03/21 11:09:21;;;;;;;1.95;1.78;;;;;;;19.82;41.43;100814.36;;;;-64
2021/03/21 11:12:20;;;;;;;1.92;1.75;;;;;;;19.85;41.57;100812.26;;;;-61
2021/03/21 11:15:21;;;;;;;2.17;1.96;;;;;;;19.87;41.14;100811.71;;;;-60
2021/03/21 11:18:21;;;;;;;3.23;1.99;;;;;;;19.84;41.06;100805.52;;;;-59
2021/03/21 11:21:22;;;;;;;2.77;1.91;;;;;;;19.81;40.95;100801.64;;;;-59
2021/03/21 11:24:21;;;;;;;1.98;1.79;;;;;;;19.81;40.91;100808.15;;;;-60
2021/03/21 11:27:21;;;;;;;2.07;1.78;;;;;;;19.80;40.91;100811.57;;;;-60
2021/03/21 11:30:26;;;;;;;2.45;1.81;;;;;;;19.78;40.91;100806.75;;;;-60
2021/03/21 11:33:21;;;;;;;2.59;1.81;;;;;;;19.77;40.84;100813.22;;;;-60
2021/03/21 11:36:21;;;;;;;2.17;1.83;;;;;;;19.78;40.90;100817.80;;;;-54
2021/03/21 11:39:21;;;;;;;2.22;1.72;;;;;;;19.80;41.08;100812.14;;;;-59
2021/03/21 11:42:21;;;;;;;3.57;1.84;;;;;;;19.82;40.91;100812.30;;;;-63
2021/03/21 11:45:21;;;;;;;2.79;1.73;;;;;;;19.80;40.78;100817.91;;;;-62
2021/03/21 11:48:21;;;;;;;1.97;1.79;;;;;;;19.79;40.82;100822.52;;;;-62
2021/03/21 11:51:21;;;;;;;2.44;1.83;;;;;;;19.78;40.79;100828.14;;;;-62
2021/03/21 11:54:21;;;;;;;1.81;1.71;;;;;;;19.79;40.74;100820.41;;;;-63
2021/03/21 11:57:21;;;;;;;1.93;1.74;;;;;;;19.79;40.68;100810.97;;;;-53
2021/03/21 12:00:21;;;;;;;1.91;1.65;;;;;;;19.78;40.77;100796.50;;;;-55
2021/03/21 12:03:21;;;;;;;2.00;1.80;;;;;;;19.78;40.74;100797.48;;;;-60
2021/03/21 12:06:21;;;;;;;2.29;1.87;;;;;;;19.78;40.71;100794.55;;;;-55
2021/03/21 12:09:21;;;;;;;1.79;1.60;;;;;;;19.79;40.74;100787.30;;;;-55
2021/03/21 12:12:21;;;;;;;1.85;1.74;;;;;;;19.81;40.68;100793.75;;;;-56
2021/03/21 12:15:21;;;;;;;2.12;1.73;;;;;;;19.81;40.75;100793.51;;;;-55
2021/03/21 12:18:21;;;;;;;1.85;1.72;;;;;;;19.82;40.66;100793.37;;;;-55
2021/03/21 12:21:21;;;;;;;1.90;1.73;;;;;;;19.82;40.67;100788.01;;;;-55
2021/03/21 12:24:21;;;;;;;1.77;1.67;;;;;;;19.83;40.68;100785.48;;;;-55
2021/03/21 12:27:20;;;;;;;1.71;1.61;;;;;;;19.84;40.58;100778.91;;;;-54
2021/03/21 12:30:21;;;;;;;1.57;1.47;;;;;;;19.86;40.66;100777.03;;;;-54
2021/03/21 12:33:21;;;;;;;1.47;1.37;;;;;;;19.86;40.65;100778.86;;;;-53
2021/03/21 12:36:21;;;;;;;1.62;1.52;;;;;;;19.87;40.68;100770.15;;;;-54
2021/03/21 12:39:21;;;;;;;1.63;1.53;;;;;;;19.89;40.64;100761.55;;;;-60
2021/03/21 12:42:21;;;;;;;2.29;1.84;;;;;;;19.90;40.61;100756.28;;;;-53
2021/03/21 12:45:21;;;;;;;1.73;1.63;;;;;;;19.96;40.74;100754.12;;;;-49
2021/03/21 12:48:21;;;;;;;3.21;1.71;;;;;;;19.99;41.03;100750.01;;;;-53
2021/03/21 12:51:21;;;;;;;3.41;1.60;;;;;;;20.05;41.15;100744.12;;;;-52
2021/03/21 12:54:21;;;;;;;2.11;1.70;;;;;;;20.09;41.12;100735.13;;;;-51
2021/03/21 12:57:21;;;;;;;1.80;1.70;;;;;;;20.10;40.97;100731.79;;;;-55
2021/03/21 13:00:21;;;;;;;5.69;1.93;;;;;;;20.15;41.16;100724.84;;;;-50
2021/03/21 13:03:21;;;;;;;3.84;1.81;;;;;;;20.20;41.07;100713.80;;;;-53
2021/03/21 13:06:21;;;;;;;2.18;1.62;;;;;;;20.23;41.11;100712.59;;;;-48
2021/03/21 13:09:21;;;;;;;2.54;1.74;;;;;;;20.24;41.08;100707.73;;;;-53
2021/03/21 13:12:21;;;;;;;2.14;1.82;;;;;;;20.27;41.12;100699.55;;;;-48
2021/03/21 13:15:21;;;;;;;2.03;1.77;;;;;;;20.30;41.23;100694.59;;;;-50
2021/03/21 13:18:22;;;;;;;2.02;1.70;;;;;;;20.31;41.50;100690.59;;;;-52
2021/03/21 13:21:21;;;;;;;1.75;1.65;;;;;;;20.32;40.90;100691.11;;;;-60
2021/03/21 13:24:20;;;;;;;1.83;1.69;;;;;;;20.38;41.29;100689.33;;;;-58
2021/03/21 13:27:21;;;;;;;2.06;1.71;;;;;;;20.38;41.13;100687.16;;;;-52
2021/03/21 13:30:21;;;;;;;1.89;1.67;;;;;;;20.41;41.17;100686.92;;;;-51
2021/03/21 13:33:21;;;;;;;3.28;1.81;;;;;;;20.41;40.93;100680.16;;;;-51
2021/03/21 13:36:21;;;;;;;2.33;1.83;;;;;;;20.38;40.80;100672.84;;;;-52
2021/03/21 13:39:21;;;;;;;3.46;1.79;;;;;;;20.37;40.66;100667.93;;;;-52
2021/03/21 13:42:21;;;;;;;1.98;1.77;;;;;;;20.37;40.74;100658.08;;;;-57
2021/03/21 13:45:21;;;;;;;2.40;1.71;;;;;;;20.39;40.95;100655.49;;;;-50
2021/03/21 13:48:21;;;;;;;3.11;1.67;;;;;;;20.42;40.92;100651.45;;;;-59
2021/03/21 13:51:21;;;;;;;2.05;1.71;;;;;;;20.44;41.07;100647.61;;;;-58
2021/03/21 13:54:21;;;;;;;1.87;1.68;;;;;;;20.46;41.11;100641.19;;;;-54
2021/03/21 13:57:21;;;;;;;2.19;1.73;;;;;;;20.48;41.15;100643.75;;;;-60
2021/03/21 14:00:21;;;;;;;1.77;1.67;;;;;;;20.51;41.03;100636.59;;;;-62
2021/03/21 14:03:21;;;;;;;3.19;1.80;;;;;;;20.55;41.13;100637.67;;;;-60
2021/03/21 14:06:20;;;;;;;1.78;1.60;;;;;;;20.55;41.15;100632.70;;;;-60
2021/03/21 14:09:21;;;;;;;1.87;1.77;;;;;;;20.59;41.17;100634.22;;;;-54
2021/03/21 14:12:21;;;;;;;2.37;1.79;;;;;;;20.58;41.01;100629.80;;;;-62
2021/03/21 14:15:21;;;;;;;1.95;1.73;;;;;;;20.60;41.11;100621.34;;;;-59
2021/03/21 14:18:21;;;;;;;2.05;1.66;;;;;;;20.58;40.82;100607.88;;;;-54
2021/03/21 14:21:21;;;;;;;2.83;1.87;;;;;;;20.50;40.29;100613.94;;;;-57
2021/03/21 14:24:21;;;;;;;3.87;2.26;;;;;;;20.44;39.31;100603.03;;;;-51
2021/03/21 14:27:20;;;;;;;3.05;2.37;;;;;;;20.40;39.69;100606.83;;;;-60
2021/03/21 14:30:20;;;;;;;2.93;2.30;;;;;;;20.41;39.84;100609.76;;;;-60
2021/03/21 14:33:21;;;;;;;3.00;2.10;;;;;;;20.40;39.84;100608.05;;;;-59
2021/03/21 14:36:21;;;;;;;4.69;2.19;;;;;;;20.42;40.00;100608.20;;;;-59
2021/03/21 14:39:21;;;;;;;2.28;2.00;;;;;;;20.40;40.01;100608.13;;;;-58
2021/03/21 14:42:21;;;;;;;2.18;1.98;;;;;;;20.39;39.94;100602.74;;;;-59
2021/03/21 14:45:21;;;;;;;2.75;1.95;;;;;;;20.40;40.06;100605.61;;;;-58
2021/03/21 14:48:21;;;;;;;2.30;2.10;;;;;;;20.41;40.12;100608.86;;;;-59
2021/03/21 14:51:21;;;;;;;1.99;1.80;;;;;;;20.41;40.03;100606.09;;;;-59
2021/03/21 14:54:21;;;;;;;2.26;1.87;;;;;;;20.40;40.07;100611.88;;;;-60
2021/03/21 14:57:21;;;;;;;2.19;1.90;;;;;;;20.40;40.12;100605.45;;;;-60
2021/03/21 15:00:20;;;;;;;2.41;1.84;;;;;;;20.41;40.18;100612.77;;;;-59
2021/03/21 15:03:21;;;;;;;2.72;1.99;;;;;;;20.41;40.13;100618.47;;;;-59
2021/03/21 15:06:21;;;;;;;2.10;1.90;;;;;;;20.41;40.16;100615.70;;;;-59
2021/03/21 15:09:21;;;;;;;2.15;1.95;;;;;;;20.41;40.10;100618.95;;;;-60
2021/03/21 15:12:21;;;;;;;2.29;1.87;;;;;;;20.42;40.07;100621.55;;;;-60
2021/03/21 15:15:21;;;;;;;2.47;1.90;;;;;;;20.42;40.12;100614.06;;;;-59
2021/03/21 15:18:22;;;;;;;1.75;1.65;;;;;;;20.41;40.06;100614.80;;;;-59
2021/03/21 15:21:21;;;;;;;1.83;1.71;;;;;;;20.42;40.08;100620.98;;;;-59
2021/03/21 15:24:21;;;;;;;1.89;1.75;;;;;;;20.41;40.14;100620.41;;;;-60
2021/03/21 15:27:21;;;;;;;1.94;1.77;;;;;;;20.42;40.13;100615.69;;;;-59
2021/03/21 15:30:21;;;;;;;2.10;1.90;;;;;;;20.42;40.16;100611.97;;;;-60
2021/03/21 15:33:21;;;;;;;1.99;1.82;;;;;;;20.42;40.12;100613.52;;;;-60
2021/03/21 15:36:21;;;;;;;1.98;1.78;;;;;;;20.43;40.07;100616.84;;;;-60
2021/03/21 15:39:21;;;;;;;1.89;1.71;;;;;;;20.44;40.09;100616.19;;;;-60
2021/03/21 15:42:21;;;;;;;1.99;1.79;;;;;;;20.43;40.13;100615.55;;;;-54
2021/03/21 15:45:21;;;;;;;2.07;1.87;;;;;;;20.44;40.31;100611.88;;;;-50
2021/03/21 15:48:21;;;;;;;2.00;1.80;;;;;;;20.48;40.54;100620.69;;;;-48
2021/03/21 15:51:21;;;;;;;3.31;1.90;;;;;;;20.53;40.70;100620.08;;;;-47
2021/03/21 15:54:21;;;;;;;2.41;1.88;;;;;;;20.57;41.04;100620.09;;;;-50
2021/03/21 15:57:20;;;;;;;4.39;1.83;;;;;;;20.60;41.32;100619.72;;;;-51
2021/03/21 16:00:21;;;;;;;2.09;1.83;;;;;;;20.64;41.40;100620.88;;;;-55
2021/03/21 16:03:21;;;;;;;4.60;1.93;;;;;;;20.66;41.37;100614.78;;;;-58
2021/03/21 16:06:21;;;;;;;5.89;2.07;;;;;;;20.66;41.13;100613.96;;;;-56
2021/03/21 16:09:20;;;;;;;3.37;1.81;;;;;;;20.65;41.12;100609.33;;;;-62
2021/03/21 16:12:21;;;;;;;3.44;1.98;;;;;;;20.66;41.04;100606.30;;;;-60
2021/03/21 16:15:21;;;;;;;3.22;1.85;;;;;;;20.66;40.94;100607.20;;;;-58
2021/03/21 16:18:21;;;;;;;4.00;1.70;;;;;;;20.65;40.70;100609.14;;;;-60
2021/03/21 16:21:21;;;;;;;9.24;1.93;;;;;;;20.64;40.70;100609.64;;;;-59
2021/03/21 16:24:21;;;;;;;6.09;1.98;;;;;;;20.68;40.80;100613.08;;;;-59
2021/03/21 16:27:21;;;;;;;4.50;1.91;;;;;;;20.70;40.76;100610.80;;;;-56
2021/03/21 16:30:21;;;;;;;6.53;1.91;;;;;;;20.76;41.20;100615.23;;;;-52
2021/03/21 16:33:21;;;;;;;4.83;1.88;;;;;;;20.79;41.15;100614.92;;;;-60
2021/03/21 16:36:21;;;;;;;5.15;2.03;;;;;;;20.82;40.91;100621.45;;;;-51
2021/03/21 16:39:21;;;;;;;4.97;1.94;;;;;;;20.87;41.40;100616.97;;;;-53
2021/03/21 16:42:20;;;;;;;4.41;1.97;;;;;;;20.87;41.07;100633.26;;;;-47
2021/03/21 16:45:20;;;;;;;3.15;1.76;;;;;;;20.89;41.07;100632.86;;;;-55
2021/03/21 16:48:21;;;;;;;3.17;1.70;;;;;;;20.91;41.13;100633.19;;;;-58
2021/03/21 16:51:21;;;;;;;1.95;1.70;;;;;;;20.93;41.14;100640.86;;;;-58
2021/03/21 16:54:20;;;;;;;2.95;1.90;;;;;;;20.95;41.09;100646.48;;;;-52
2021/03/21 16:57:21;;;;;;;4.46;1.77;;;;;;;20.95;41.20;100647.05;;;;-61
2021/03/21 17:00:21;;;;;;;3.83;1.81;;;;;;;20.95;41.16;100650.14;;;;-60
2021/03/21 17:03:20;;;;;;;5.72;1.82;;;;;;;20.95;41.28;100646.48;;;;-54
2021/03/21 17:06:20;;;;;;;2.23;1.78;;;;;;;20.96;41.31;100651.47;;;;-56
2021/03/21 17:09:21;;;;;;;2.75;1.55;;;;;;;20.98;41.17;100659.52;;;;-60